Time;durP1;ratioP1;P1;durP2;ratioP2;P2;SDS_P1;SDS_P2;PMS_P1;PMS_P2;Temp;Humidity;BMP_temperature;BMP_pressure;BME280_temperature;BME280_humidity;BME280_pressure;Samples;Min_cycle;Max_cycle;Signal;HPM_P1;HPM_P2
2021/05/14 00:00:45;;;;;;;8.77;7.97;;;13.20;99.90;;;;;;5100166;28;20034;-40
2021/05/14 00:03:11;;;;;;;8.90;8.10;;;13.10;99.90;;;;;;5087907;28;20060;-41
2021/05/14 00:05:36;;;;;;;8.95;8.15;;;13.10;99.90;;;;;;5099542;28;20055;-40
2021/05/14 00:08:03;;;;;;;9.20;8.38;;;13.20;99.90;;;;;;5107997;28;20035;-40
2021/05/14 00:10:28;;;;;;;9.27;8.13;;;13.20;99.90;;;;;;5103329;28;20419;-40
2021/05/14 00:12:54;;;;;;;9.07;8.18;;;13.20;99.90;;;;;;5089267;28;20831;-40
2021/05/14 00:15:20;;;;;;;9.23;8.38;;;13.20;99.90;;;;;;5095503;28;20027;-39
2021/05/14 00:17:46;;;;;;;9.02;8.25;;;13.30;99.90;;;;;;5091574;28;20505;-37
2021/05/14 00:20:12;;;;;;;10.07;8.95;;;13.20;99.90;;;;;;5092598;28;20012;-37
2021/05/14 00:22:38;;;;;;;10.13;9.23;;;13.20;99.90;;;;;;5095294;28;20048;-40
2021/05/14 00:25:08;;;;;;;9.70;8.80;;;13.20;99.90;;;;;;5089339;28;20476;-39
2021/05/14 00:27:33;;;;;;;10.88;9.88;;;13.20;99.90;;;;;;5097006;28;20059;-39
2021/05/14 00:29:59;;;;;;;10.88;9.77;;;13.20;99.90;;;;;;5088025;28;20019;-39
2021/05/14 00:32:25;;;;;;;13.55;10.80;;;13.20;99.90;;;;;;5098951;28;20074;-39
2021/05/14 00:34:50;;;;;;;12.13;10.70;;;13.10;99.90;;;;;;5088279;28;20020;-39
2021/05/14 00:37:16;;;;;;;12.25;10.43;;;13.10;99.90;;;;;;5098773;28;20117;-39
2021/05/14 00:39:43;;;;;;;12.65;11.35;;;13.10;99.90;;;;;;5086640;28;20098;-40
2021/05/14 00:42:08;;;;;;;11.57;10.43;;;13.10;99.90;;;;;;5099216;28;20645;-40
2021/05/14 00:44:36;;;;;;;12.80;11.60;;;13.10;99.90;;;;;;5086727;28;20383;-40
2021/05/14 00:47:07;;;;;;;12.82;11.63;;;13.10;99.90;;;;;;5090837;28;20491;-39
2021/05/14 00:49:34;;;;;;;12.73;11.53;;;13.10;99.90;;;;;;5107467;28;20076;-39
2021/05/14 00:52:00;;;;;;;12.82;11.60;;;13.00;99.90;;;;;;5096106;28;20061;-38
2021/05/14 00:54:27;;;;;;;13.20;11.88;;;13.00;99.90;;;;;;5105620;28;20133;-39
2021/05/14 00:56:53;;;;;;;13.63;11.05;;;13.00;99.90;;;;;;5097944;28;20122;-37
2021/05/14 00:59:19;;;;;;;12.10;10.95;;;13.00;99.90;;;;;;5103473;28;20115;-39
2021/05/14 01:01:44;;;;;;;12.77;11.57;;;13.00;99.90;;;;;;5099742;28;20020;-38
2021/05/14 01:04:10;;;;;;;13.32;11.93;;;13.00;99.90;;;;;;5099989;28;20097;-40
2021/05/14 01:06:35;;;;;;;13.00;11.85;;;13.00;99.90;;;;;;5102718;28;20051;-39
2021/05/14 01:09:02;;;;;;;13.43;12.13;;;13.00;99.90;;;;;;5097821;28;20416;-39
2021/05/14 01:11:28;;;;;;;14.05;12.65;;;13.00;99.90;;;;;;5105217;28;20011;-41
2021/05/14 01:13:56;;;;;;;12.27;11.07;;;13.00;99.90;;;;;;5095151;28;20308;-39
2021/05/14 01:16:22;;;;;;;12.40;11.10;;;13.00;99.90;;;;;;5105345;28;20023;-39
2021/05/14 01:18:47;;;;;;;12.98;11.70;;;13.00;99.90;;;;;;5094318;28;20395;-39
2021/05/14 01:21:13;;;;;;;14.13;12.75;;;13.00;99.90;;;;;;5106814;28;20027;-38
2021/05/14 01:23:38;;;;;;;15.77;14.18;;;13.00;99.90;;;;;;5093600;28;20110;-37
2021/05/14 01:26:15;;;;;;;16.17;14.55;;;13.00;99.90;;;;;;5106453;28;20106;-39
2021/05/14 01:28:41;;;;;;;16.17;14.57;;;13.00;99.90;;;;;;5092639;28;20111;-40
2021/05/14 01:31:07;;;;;;;15.85;14.15;;;13.00;99.90;;;;;;5106567;28;20020;-38
2021/05/14 01:33:33;;;;;;;16.17;14.57;;;12.90;99.90;;;;;;5093180;28;20028;-38
2021/05/14 01:35:59;;;;;;;16.52;14.88;;;12.90;99.90;;;;;;5106355;28;20853;-41
2021/05/14 01:38:25;;;;;;;17.63;15.82;;;12.90;99.90;;;;;;5096561;28;20089;-39
2021/05/14 01:40:51;;;;;;;17.55;15.85;;;12.90;99.90;;;;;;5103639;28;20364;-39
2021/05/14 01:43:17;;;;;;;18.02;16.23;;;12.90;99.90;;;;;;5098450;28;20112;-40
2021/05/14 01:45:42;;;;;;;16.65;14.95;;;12.90;99.90;;;;;;5092981;28;20035;-40
2021/05/14 01:48:08;;;;;;;17.90;16.08;;;12.90;99.90;;;;;;5090558;28;20027;-40
2021/05/14 01:50:34;;;;;;;17.10;15.40;;;12.90;99.90;;;;;;5093521;28;20040;-40
2021/05/14 01:53:00;;;;;;;17.35;15.60;;;12.90;99.90;;;;;;5087977;28;20103;-41
2021/05/14 01:55:25;;;;;;;18.45;16.52;;;12.80;99.90;;;;;;5096151;28;20124;-40
2021/05/14 01:57:51;;;;;;;17.75;16.05;;;12.70;99.90;;;;;;5086395;28;20424;-38
2021/05/14 02:00:17;;;;;;;17.30;15.65;;;12.80;99.90;;;;;;5097159;28;20054;-39
2021/05/14 02:02:42;;;;;;;20.17;16.95;;;12.70;99.90;;;;;;5086056;28;20375;-39
2021/05/14 02:05:08;;;;;;;19.73;17.65;;;12.70;99.90;;;;;;5097511;28;20044;-39
2021/05/14 02:07:34;;;;;;;18.35;15.80;;;12.60;99.90;;;;;;5085254;28;20024;-39
2021/05/14 02:10:00;;;;;;;25.60;22.77;;;12.60;99.90;;;;;;5098241;28;20054;-39
2021/05/14 02:12:25;;;;;;;22.73;20.38;;;12.60;99.90;;;;;;5086364;28;20085;-40
2021/05/14 02:14:51;;;;;;;24.95;20.50;;;12.50;99.90;;;;;;5096736;28;20080;-39
2021/05/14 02:17:17;;;;;;;22.35;20.15;;;12.50;99.90;;;;;;5086411;28;20032;-39
2021/05/14 02:19:42;;;;;;;20.95;18.10;;;12.50;99.90;;;;;;5094358;28;20495;-38
2021/05/14 02:22:08;;;;;;;20.10;18.08;;;12.50;99.90;;;;;;5089360;28;20094;-40
2021/05/14 02:24:34;;;;;;;19.70;17.70;;;12.50;99.90;;;;;;5091646;28;20046;-40
2021/05/14 02:26:59;;;;;;;20.65;18.55;;;12.50;99.90;;;;;;5091241;28;20150;-39
2021/05/14 02:29:28;;;;;;;20.30;18.15;;;12.50;99.90;;;;;;5089303;28;20039;-40
2021/05/14 02:31:53;;;;;;;21.52;19.27;;;12.50;99.90;;;;;;5092592;28;20452;-39
2021/05/14 02:34:19;;;;;;;21.30;19.23;;;12.60;99.90;;;;;;5087791;28;20020;-39
2021/05/14 02:36:44;;;;;;;19.30;17.33;;;12.60;99.90;;;;;;5095672;28;20055;-39
2021/05/14 02:39:10;;;;;;;20.10;18.02;;;12.60;99.90;;;;;;5086216;28;20043;-37
2021/05/14 02:41:37;;;;;;;19.98;17.90;;;12.70;99.90;;;;;;5097058;28;20048;-40
2021/05/14 02:44:05;;;;;;;19.05;17.15;;;12.70;99.90;;;;;;5085153;28;20024;-39
2021/05/14 02:46:34;;;;;;;21.00;18.85;;;12.70;99.90;;;;;;5086990;28;20023;-41
2021/05/14 02:49:00;;;;;;;20.58;18.33;;;12.70;99.90;;;;;;5087079;28;20046;-39
2021/05/14 02:51:26;;;;;;;20.27;18.17;;;12.70;99.90;;;;;;5092669;28;20024;-39
2021/05/14 02:53:51;;;;;;;20.95;18.58;;;12.60;99.90;;;;;;5105160;28;20027;-39
2021/05/14 02:56:18;;;;;;;22.48;19.92;;;12.60;99.90;;;;;;5092662;28;20032;-39
2021/05/14 02:58:43;;;;;;;22.98;20.25;;;12.60;99.90;;;;;;5104824;28;20088;-39
2021/05/14 03:01:09;;;;;;;24.00;21.50;;;12.50;99.90;;;;;;5095198;28;20481;-39
2021/05/14 03:03:35;;;;;;;21.98;19.63;;;12.50;99.90;;;;;;5102724;28;20024;-40
2021/05/14 03:06:00;;;;;;;20.55;18.00;;;12.40;99.90;;;;;;5097588;28;20047;-36
2021/05/14 03:08:26;;;;;;;20.55;18.23;;;12.40;99.90;;;;;;5103078;28;20917;-39
2021/05/14 03:10:52;;;;;;;20.63;18.35;;;12.40;99.90;;;;;;5103919;28;20009;-40
2021/05/14 03:13:17;;;;;;;21.00;18.90;;;12.40;99.90;;;;;;5100992;28;20031;-39
2021/05/14 03:15:42;;;;;;;20.15;18.15;;;12.40;99.90;;;;;;5106092;28;20022;-39
2021/05/14 03:18:08;;;;;;;20.98;18.88;;;12.40;99.90;;;;;;5098428;28;20502;-39
2021/05/14 03:20:34;;;;;;;20.48;18.38;;;12.40;99.90;;;;;;5106630;28;20028;-39
2021/05/14 03:23:02;;;;;;;20.08;18.08;;;12.40;99.90;;;;;;5097594;28;20020;-40
2021/05/14 03:25:28;;;;;;;19.50;17.25;;;12.40;99.90;;;;;;5107748;28;20024;-40
2021/05/14 03:27:54;;;;;;;20.05;18.02;;;12.40;99.90;;;;;;5096038;28;20041;-39
2021/05/14 03:30:20;;;;;;;19.73;17.55;;;12.40;99.90;;;;;;5108902;28;20034;-39
2021/05/14 03:32:46;;;;;;;20.48;18.40;;;12.40;99.90;;;;;;5095726;28;20035;-40
2021/05/14 03:35:12;;;;;;;20.25;18.15;;;12.40;99.90;;;;;;5108774;28;20027;-40
2021/05/14 03:37:38;;;;;;;20.52;18.23;;;12.40;99.90;;;;;;5096385;28;20031;-39
2021/05/14 03:40:16;;;;;;;20.83;18.73;;;12.40;99.90;;;;;;5108299;28;20023;-39
2021/05/14 03:42:41;;;;;;;21.38;19.17;;;12.50;99.90;;;;;;5096580;28;20017;-39
2021/05/14 03:45:09;;;;;;;20.15;18.15;;;12.50;99.90;;;;;;5105225;28;20020;-40
2021/05/14 03:47:34;;;;;;;20.88;18.70;;;12.60;99.90;;;;;;5096861;28;20015;-39
2021/05/14 03:50:00;;;;;;;19.05;17.02;;;12.60;99.90;;;;;;5091582;28;20513;-39
2021/05/14 03:52:30;;;;;;;19.80;17.80;;;12.60;99.90;;;;;;5094316;28;20473;-39
2021/05/14 03:54:56;;;;;;;21.40;18.00;;;12.60;99.90;;;;;;5093935;28;20032;-40
2021/05/14 03:57:21;;;;;;;19.88;17.85;;;12.60;99.90;;;;;;5091406;28;20403;-40
2021/05/14 03:59:47;;;;;;;19.90;17.77;;;12.60;99.90;;;;;;5096306;28;20068;-39
2021/05/14 04:02:12;;;;;;;20.50;18.40;;;12.60;99.90;;;;;;5089791;28;20024;-39
2021/05/14 04:04:38;;;;;;;19.90;17.88;;;12.60;99.90;;;;;;5098418;28;20093;-39
2021/05/14 04:07:04;;;;;;;22.02;18.13;;;12.60;99.90;;;;;;5088775;28;20031;-39
2021/05/14 04:09:35;;;;;;;20.73;18.60;;;12.60;99.90;;;;;;5099063;28;20036;-40
2021/05/14 04:14:40;;;;;;;19.83;17.73;;;12.60;99.90;;;;;;5104940;28;20086;-39
2021/05/14 04:17:06;;;;;;;20.15;18.15;;;12.60;99.90;;;;;;5107461;28;20028;-40
2021/05/14 04:19:35;;;;;;;18.23;16.42;;;12.60;99.90;;;;;;5102343;28;20032;-40
2021/05/14 04:22:05;;;;;;;17.20;15.50;;;12.60;99.90;;;;;;5087204;28;20024;-39
2021/05/14 04:24:31;;;;;;;17.35;15.63;;;12.70;99.90;;;;;;5099165;28;20032;-39
2021/05/14 04:26:57;;;;;;;16.80;14.95;;;12.70;99.90;;;;;;5087564;28;20036;-42
2021/05/14 04:29:24;;;;;;;18.63;16.63;;;12.60;99.90;;;;;;5100430;28;20019;-38
2021/05/14 04:31:49;;;;;;;17.27;15.48;;;12.60;99.90;;;;;;5086781;28;20029;-37
2021/05/14 04:34:17;;;;;;;18.45;16.48;;;12.50;99.90;;;;;;5096315;28;20131;-40
2021/05/14 04:36:47;;;;;;;16.80;14.48;;;12.50;99.90;;;;;;5089481;28;20072;-39
2021/05/14 04:39:12;;;;;;;15.90;14.23;;;12.50;99.90;;;;;;5094967;28;20455;-39
2021/05/14 04:41:38;;;;;;;17.40;14.57;;;12.60;99.90;;;;;;5092033;28;20032;-40
2021/05/14 04:44:05;;;;;;;17.02;14.50;;;12.60;99.90;;;;;;5092299;28;20016;-40
2021/05/14 04:46:30;;;;;;;17.73;15.77;;;12.60;99.90;;;;;;5107306;28;20028;-39
2021/05/14 04:48:56;;;;;;;16.35;14.68;;;12.60;99.90;;;;;;5104268;28;20169;-39
2021/05/14 04:51:22;;;;;;;16.38;14.38;;;12.70;99.90;;;;;;5097597;28;20397;-40
2021/05/14 04:53:48;;;;;;;17.17;15.35;;;12.70;99.90;;;;;;5105322;28;20051;-39
2021/05/14 04:56:15;;;;;;;16.25;14.52;;;12.80;99.90;;;;;;5096132;28;20098;-39
2021/05/14 04:58:44;;;;;;;16.75;14.60;;;12.80;99.90;;;;;;5104860;28;20028;-40
2021/05/14 05:01:13;;;;;;;18.27;16.33;;;12.80;99.90;;;;;;5096376;28;20024;-39
2021/05/14 05:03:42;;;;;;;17.60;15.15;;;12.80;99.90;;;;;;5106797;28;20418;-41
2021/05/14 05:06:07;;;;;;;18.98;16.98;;;12.80;99.90;;;;;;5101697;28;20134;-40
2021/05/14 05:08:33;;;;;;;18.30;15.90;;;12.90;99.90;;;;;;5087066;28;20087;-40
2021/05/14 05:10:58;;;;;;;19.35;17.17;;;12.90;99.90;;;;;;5098671;28;20023;-40
2021/05/14 05:13:24;;;;;;;17.08;15.18;;;12.80;99.90;;;;;;5086933;28;20446;-40
2021/05/14 05:15:49;;;;;;;18.30;16.35;;;12.80;99.90;;;;;;5097968;28;20088;-40
2021/05/14 05:18:15;;;;;;;20.58;16.85;;;12.80;99.90;;;;;;5087409;28;20028;-40
2021/05/14 05:20:40;;;;;;;19.73;16.83;;;12.80;99.90;;;;;;5095206;28;20026;-38
2021/05/14 05:23:06;;;;;;;17.83;14.52;;;12.80;99.90;;;;;;5090512;28;20069;-39
2021/05/14 05:25:33;;;;;;;22.30;19.63;;;12.80;99.90;;;;;;5092403;28;20023;-39
2021/05/14 05:28:03;;;;;;;20.88;17.17;;;12.70;99.90;;;;;;5093006;28;20039;-40
2021/05/14 05:30:28;;;;;;;21.80;18.35;;;12.60;99.90;;;;;;5090055;28;20069;-39
2021/05/14 05:32:54;;;;;;;20.90;17.83;;;12.50;99.90;;;;;;5094617;28;20137;-39
2021/05/14 05:35:20;;;;;;;20.38;18.08;;;12.40;99.90;;;;;;5087860;28;20020;-39
2021/05/14 05:37:45;;;;;;;19.48;17.40;;;12.30;99.90;;;;;;5096841;28;20024;-40
2021/05/14 05:40:19;;;;;;;18.52;16.20;;;12.20;99.90;;;;;;5088007;28;20210;-39
2021/05/14 05:42:45;;;;;;;17.95;15.48;;;12.20;99.90;;;;;;5097052;28;20135;-39
2021/05/14 05:45:11;;;;;;;16.55;14.80;;;12.20;99.90;;;;;;5086465;28;20063;-40
2021/05/14 05:47:36;;;;;;;17.95;15.40;;;12.20;99.90;;;;;;5098030;28;20027;-40
2021/05/14 05:50:03;;;;;;;17.60;15.60;;;12.30;99.90;;;;;;5085986;28;20024;-39
2021/05/14 05:52:29;;;;;;;19.77;15.77;;;12.30;99.90;;;;;;5098834;28;20139;-39
2021/05/14 05:54:55;;;;;;;18.80;15.52;;;12.40;99.90;;;;;;5086211;28;20082;-40
2021/05/14 05:57:20;;;;;;;16.77;14.60;;;12.50;99.90;;;;;;5098917;28;20023;-40
2021/05/14 05:59:48;;;;;;;17.65;15.27;;;12.50;99.90;;;;;;5085754;28;20089;-38
2021/05/14 06:02:14;;;;;;;20.60;15.00;;;12.60;99.90;;;;;;5090113;28;20367;-40
2021/05/14 06:04:39;;;;;;;17.45;15.07;;;12.70;99.90;;;;;;5103538;28;20509;-40
2021/05/14 06:07:05;;;;;;;18.92;14.75;;;12.80;99.90;;;;;;5098916;28;20020;-41
2021/05/14 06:09:31;;;;;;;19.17;16.20;;;12.80;99.90;;;;;;5100610;28;20046;-39
2021/05/14 06:11:57;;;;;;;18.50;15.25;;;12.70;99.90;;;;;;5100340;28;20051;-40
2021/05/14 06:14:22;;;;;;;23.40;17.58;;;12.60;99.90;;;;;;5098559;28;20100;-39
2021/05/14 06:16:51;;;;;;;18.98;16.33;;;12.60;99.90;;;;;;5102900;28;20027;-39
2021/05/14 06:19:26;;;;;;;20.88;16.95;;;12.50;99.90;;;;;;5096624;28;20064;-40
2021/05/14 06:21:51;;;;;;;19.13;16.27;;;12.50;99.90;;;;;;5104339;28;20103;-40
2021/05/14 06:24:18;;;;;;;16.98;14.57;;;12.50;99.90;;;;;;5094536;28;20115;-40
2021/05/14 06:26:45;;;;;;;20.23;15.93;;;12.50;99.90;;;;;;5104113;28;20132;-40
2021/05/14 06:29:11;;;;;;;19.75;16.48;;;12.50;99.90;;;;;;5097305;28;20518;-37
2021/05/14 06:31:37;;;;;;;17.70;15.30;;;12.50;99.90;;;;;;5085343;28;20024;-38
2021/05/14 06:34:03;;;;;;;13.02;11.55;;;12.50;99.90;;;;;;5098515;28;20039;-39
2021/05/14 06:36:28;;;;;;;19.42;15.23;;;12.70;99.90;;;;;;5085204;28;20027;-39
2021/05/14 06:38:54;;;;;;;17.63;14.65;;;12.70;99.90;;;;;;5097551;28;20725;-39
2021/05/14 06:41:19;;;;;;;17.63;14.25;;;12.80;99.90;;;;;;5085962;28;20463;-38
2021/05/14 06:43:45;;;;;;;14.70;12.50;;;12.90;99.90;;;;;;5099470;28;20028;-37
2021/05/14 06:46:10;;;;;;;15.65;13.43;;;13.00;99.90;;;;;;5099659;28;20071;-39
2021/05/14 06:48:36;;;;;;;16.48;13.35;;;13.10;99.90;;;;;;5101179;28;20032;-39
2021/05/14 06:51:03;;;;;;;15.57;13.70;;;13.20;99.90;;;;;;5105562;28;20396;-39
2021/05/14 06:53:29;;;;;;;15.35;13.63;;;13.30;99.90;;;;;;5103591;28;20430;-39
2021/05/14 06:55:54;;;;;;;14.80;12.57;;;13.30;99.90;;;;;;5103443;28;20066;-38
2021/05/14 06:58:20;;;;;;;14.63;12.73;;;13.30;99.90;;;;;;5105360;28;20142;-39
2021/05/14 07:00:46;;;;;;;17.95;15.50;;;13.40;99.90;;;;;;5100700;28;20387;-38
2021/05/14 07:03:11;;;;;;;16.70;14.80;;;13.40;99.90;;;;;;5108188;28;20032;-39
2021/05/14 07:05:37;;;;;;;19.67;17.17;;;13.30;99.90;;;;;;5097348;28;20134;-40
2021/05/14 07:08:03;;;;;;;19.25;16.77;;;13.30;99.90;;;;;;5108059;28;20122;-39
2021/05/14 07:10:29;;;;;;;19.73;17.52;;;13.30;99.90;;;;;;5097513;28;20454;-39
2021/05/14 07:12:55;;;;;;;21.17;18.67;;;13.30;99.90;;;;;;5108371;28;20024;-39
2021/05/14 07:15:21;;;;;;;23.50;18.23;;;13.30;99.90;;;;;;5101755;28;20026;-38
2021/05/14 07:17:47;;;;;;;21.02;18.00;;;13.30;99.90;;;;;;5088801;28;20032;-38
2021/05/14 07:20:13;;;;;;;22.42;17.90;;;13.30;99.90;;;;;;5101368;28;20032;-37
2021/05/14 07:22:40;;;;;;;24.40;20.70;;;13.30;99.90;;;;;;5089136;28;20195;-40
2021/05/14 07:25:06;;;;;;;21.88;19.25;;;13.30;99.70;;;;;;5099418;28;20027;-38
2021/05/14 07:27:32;;;;;;;21.73;19.42;;;13.20;99.90;;;;;;5089426;28;20028;-40
2021/05/14 07:29:58;;;;;;;23.88;20.23;;;13.20;99.90;;;;;;5097613;28;20152;-40
2021/05/14 07:32:23;;;;;;;23.67;20.42;;;13.20;99.90;;;;;;5093576;28;20034;-39
2021/05/14 07:34:52;;;;;;;22.15;19.77;;;13.20;99.90;;;;;;5093661;28;20622;-38
2021/05/14 07:37:17;;;;;;;21.45;17.13;;;13.20;99.80;;;;;;5094965;28;20118;-40
2021/05/14 07:39:43;;;;;;;19.77;16.80;;;13.20;99.90;;;;;;5091633;28;20309;-40
2021/05/14 07:42:09;;;;;;;17.30;15.00;;;13.20;99.90;;;;;;5097350;28;20031;-38
2021/05/14 07:44:35;;;;;;;20.65;17.98;;;13.40;99.90;;;;;;5089467;28;20552;-39
2021/05/14 07:47:00;;;;;;;20.50;17.63;;;13.50;99.80;;;;;;5093935;28;20475;-40
2021/05/14 07:49:26;;;;;;;22.13;18.48;;;13.50;99.60;;;;;;5089263;28;20032;-40
2021/05/14 07:51:51;;;;;;;19.98;17.23;;;13.60;99.50;;;;;;5099184;28;20032;-39
2021/05/14 07:54:17;;;;;;;20.27;16.27;;;13.60;99.60;;;;;;5088163;28;20044;-39
2021/05/14 07:56:42;;;;;;;19.05;15.68;;;13.60;99.60;;;;;;5099828;28;20116;-43
2021/05/14 07:59:10;;;;;;;17.60;15.52;;;13.60;99.60;;;;;;5088428;28;20464;-40
2021/05/14 08:01:36;;;;;;;17.95;15.20;;;13.60;99.60;;;;;;5099739;28;20524;-40
2021/05/14 08:04:02;;;;;;;18.02;14.93;;;13.70;99.70;;;;;;5087515;28;20115;-39
2021/05/14 08:06:27;;;;;;;21.80;18.85;;;13.80;99.70;;;;;;5099579;28;20082;-38
2021/05/14 08:08:55;;;;;;;20.80;18.42;;;13.80;99.30;;;;;;5089375;28;20012;-39
2021/05/14 08:11:20;;;;;;;20.83;16.65;;;13.90;99.00;;;;;;5096614;28;20019;-39
2021/05/14 08:13:46;;;;;;;20.30;17.45;;;13.80;99.20;;;;;;5091819;28;20058;-39
2021/05/14 08:16:11;;;;;;;21.15;17.73;;;13.80;99.10;;;;;;5093801;28;20024;-41
2021/05/14 08:18:37;;;;;;;20.27;17.13;;;13.70;99.10;;;;;;5094375;28;20071;-41
2021/05/14 08:21:03;;;;;;;23.90;19.85;;;13.70;99.00;;;;;;5090901;28;20016;-42
2021/05/14 08:23:28;;;;;;;21.02;18.33;;;13.70;98.90;;;;;;5097542;28;20107;-40
2021/05/14 08:25:54;;;;;;;20.20;16.70;;;13.60;99.10;;;;;;5087977;28;20107;-40
2021/05/14 08:28:20;;;;;;;21.70;18.40;;;13.70;99.00;;;;;;5100186;28;20051;-41
2021/05/14 08:30:47;;;;;;;25.65;19.33;;;13.70;98.80;;;;;;5088124;28;20035;-41
2021/05/14 08:33:12;;;;;;;24.73;18.98;;;13.60;98.30;;;;;;5099104;28;20036;-39
2021/05/14 08:35:39;;;;;;;23.20;18.90;;;13.50;98.50;;;;;;5087713;28;20016;-38
2021/05/14 08:38:06;;;;;;;20.80;16.40;;;13.40;99.10;;;;;;5099495;28;20625;-39
2021/05/14 08:40:33;;;;;;;24.60;20.02;;;13.40;99.00;;;;;;5087423;28;20086;-39
2021/05/14 08:42:58;;;;;;;25.15;18.55;;;13.40;99.00;;;;;;5100130;28;20095;-38
2021/05/14 08:45:24;;;;;;;20.83;17.30;;;13.50;99.10;;;;;;5088553;28;20558;-39
2021/05/14 08:47:53;;;;;;;25.15;19.20;;;13.70;99.00;;;;;;5096257;28;20374;-40
2021/05/14 08:50:19;;;;;;;21.45;18.02;;;13.80;98.70;;;;;;5106315;28;20431;-40
2021/05/14 08:52:45;;;;;;;24.17;18.45;;;13.80;98.50;;;;;;5098088;28;20035;-40
2021/05/14 08:55:12;;;;;;;20.63;17.80;;;13.90;98.70;;;;;;5104097;28;20383;-38
2021/05/14 08:57:39;;;;;;;23.90;20.95;;;14.00;98.70;;;;;;5100443;28;20472;-38
2021/05/14 09:00:07;;;;;;;25.23;19.63;;;14.20;98.40;;;;;;5102274;28;20051;-41
2021/05/14 09:02:34;;;;;;;21.83;18.90;;;14.30;98.20;;;;;;5102870;28;20031;-39
2021/05/14 09:05:23;;;;;;;24.92;19.13;;;14.30;98.20;;;;;;5097860;28;20102;-38
2021/05/14 09:07:50;;;;;;;23.45;19.23;;;14.40;98.30;;;;;;5102590;28;20027;-40
2021/05/14 09:10:16;;;;;;;21.67;18.33;;;14.50;98.20;;;;;;5100064;28;20057;-40
2021/05/14 09:12:43;;;;;;;21.55;18.38;;;14.50;98.10;;;;;;5104244;28;20490;-41
2021/05/14 09:15:27;;;;;;;25.38;20.08;;;14.60;98.00;;;;;;5097932;28;20100;-41
2021/05/14 09:18:15;;;;;;;28.85;23.58;;;14.60;97.90;;;;;;5103803;28;20016;-38
2021/05/14 09:20:47;;;;;;;28.02;22.70;;;14.50;96.90;;;;;;5099656;28;20034;-39
2021/05/14 09:23:16;;;;;;;27.02;22.13;;;14.40;97.00;;;;;;5103015;28;20036;-38
2021/05/14 09:26:02;;;;;;;27.60;22.00;;;14.20;97.30;;;;;;5097918;28;20031;-39
2021/05/14 09:28:37;;;;;;;25.95;21.30;;;14.10;97.40;;;;;;5101156;28;20477;-37
2021/05/14 09:31:12;;;;;;;28.25;20.75;;;14.10;97.60;;;;;;5100226;28;20571;-39
2021/05/14 09:33:59;;;;;;;31.15;23.15;;;14.10;97.70;;;;;;5101069;28;20026;-41
2021/05/14 09:36:30;;;;;;;28.50;21.77;;;14.20;97.60;;;;;;5101535;28;20752;-42
2021/05/14 09:39:00;;;;;;;27.23;20.95;;;14.20;97.50;;;;;;5100949;28;20112;-39
2021/05/14 09:41:29;;;;;;;26.38;21.05;;;14.30;97.60;;;;;;5100752;28;20075;-41
2021/05/14 09:43:58;;;;;;;27.08;21.65;;;14.50;97.60;;;;;;5102354;28;20066;-40
2021/05/14 09:46:36;;;;;;;26.10;21.00;;;14.70;96.80;;;;;;5090301;28;20408;-40
2021/05/14 09:49:05;;;;;;;25.30;21.02;;;14.80;96.70;;;;;;5089466;28;20020;-39
2021/05/14 09:51:33;;;;;;;29.42;23.23;;;14.80;96.50;;;;;;5094514;28;20024;-37
2021/05/14 09:54:21;;;;;;;25.15;19.45;;;14.90;96.40;;;;;;5087086;28;20047;-39
2021/05/14 09:57:30;;;;;;;27.75;23.02;;;15.00;96.50;;;;;;5092879;28;20040;-40
2021/05/14 09:59:58;;;;;;;26.85;22.30;;;15.10;95.30;;;;;;5094032;28;20028;-40
2021/05/14 10:02:29;;;;;;;22.23;19.83;;;15.00;95.20;;;;;;5090066;28;20546;-40
2021/05/14 10:04:55;;;;;;;25.02;20.85;;;15.00;95.40;;;;;;5091738;28;20444;-39
2021/05/14 10:07:24;;;;;;;21.70;18.73;;;14.80;95.20;;;;;;5091746;28;20460;-40
2021/05/14 10:09:52;;;;;;;21.48;18.00;;;14.80;95.70;;;;;;5089885;28;20359;-36
2021/05/14 10:12:19;;;;;;;19.98;17.25;;;14.90;95.80;;;;;;5093835;28;20031;-40
2021/05/14 10:14:45;;;;;;;22.63;17.60;;;15.00;95.60;;;;;;5087842;28;20024;-40
2021/05/14 10:17:11;;;;;;;19.10;16.58;;;15.00;95.60;;;;;;5098412;28;20016;-40
2021/05/14 10:19:39;;;;;;;18.45;16.52;;;15.20;95.70;;;;;;5090998;28;20035;-40
2021/05/14 10:22:05;;;;;;;18.48;14.55;;;15.30;95.40;;;;;;5100637;28;20071;-41
2021/05/14 10:24:41;;;;;;;18.25;15.68;;;15.40;95.40;;;;;;5091001;28;20024;-38
2021/05/14 10:27:17;;;;;;;20.45;16.67;;;15.50;95.20;;;;;;5101391;28;20115;-38
2021/05/14 10:29:45;;;;;;;17.08;15.27;;;15.50;95.10;;;;;;5090333;28;20540;-39
2021/05/14 10:32:14;;;;;;;19.45;16.42;;;15.40;95.30;;;;;;5101251;28;20024;-39
2021/05/14 10:34:39;;;;;;;19.20;16.77;;;15.40;94.50;;;;;;5089782;28;20035;-40
2021/05/14 10:37:05;;;;;;;17.50;15.60;;;15.30;94.00;;;;;;5101560;28;20016;-40
2021/05/14 10:39:32;;;;;;;18.23;16.27;;;15.10;94.20;;;;;;5089785;28;20052;-40
2021/05/14 10:42:09;;;;;;;18.98;14.60;;;15.10;94.20;;;;;;5102074;28;20077;-39
2021/05/14 10:44:43;;;;;;;17.67;14.43;;;15.10;94.60;;;;;;5089097;28;20023;-39
2021/05/14 10:47:21;;;;;;;20.08;17.38;;;15.20;94.70;;;;;;5102274;28;20047;-39
2021/05/14 10:49:49;;;;;;;19.17;16.52;;;15.30;94.10;;;;;;5088685;28;20051;-40
2021/05/14 10:52:14;;;;;;;16.13;13.95;;;15.30;93.50;;;;;;5101301;28;20024;-37
2021/05/14 10:54:42;;;;;;;13.65;12.18;;;15.20;93.90;;;;;;5089063;28;20024;-40
2021/05/14 10:57:34;;;;;;;12.55;11.15;;;15.30;94.00;;;;;;5100235;28;20096;-40
2021/05/14 11:00:26;;;;;;;13.00;11.63;;;15.50;93.90;;;;;;5088419;28;20040;-40
2021/05/14 11:03:10;;;;;;;14.38;11.73;;;15.60;93.80;;;;;;5095084;28;20028;-39
2021/05/14 11:05:41;;;;;;;14.70;12.40;;;15.70;93.30;;;;;;5108923;28;20044;-40
2021/05/14 11:08:09;;;;;;;12.55;10.98;;;15.60;92.50;;;;;;5101675;28;20097;-40
2021/05/14 11:10:35;;;;;;;12.30;10.85;;;15.50;92.60;;;;;;5088732;28;20016;-41
2021/05/14 11:13:34;;;;;;;10.52;8.95;;;15.40;93.10;;;;;;5100741;28;20019;-39
2021/05/14 11:16:41;;;;;;;12.63;11.23;;;15.40;93.50;;;;;;5064760;28;20585;-40
2021/05/14 11:19:12;;;;;;;11.07;9.45;;;15.50;92.60;;;;;;5099920;28;20044;-38
2021/05/14 11:22:16;;;;;;;10.25;9.13;;;15.50;92.90;;;;;;5089685;28;20020;-39
2021/05/14 11:24:50;;;;;;;11.63;9.50;;;15.50;92.80;;;;;;5100313;28;20047;-39
2021/05/14 11:27:20;;;;;;;8.77;7.88;;;15.50;92.60;;;;;;5103487;28;20028;-39
2021/05/14 11:30:13;;;;;;;8.68;7.88;;;15.60;92.80;;;;;;5095980;28;20035;-39
2021/05/14 11:32:39;;;;;;;;;;;15.60;92.60;;;;;;5091366;28;20035;-40
2021/05/14 11:35:23;;;;;;;9.60;8.60;;;15.70;91.20;;;;;;5095579;28;19912;-38
2021/05/14 11:37:54;;;;;;;7.65;6.95;;;15.70;91.80;;;;;;5092839;28;20016;-39
2021/05/14 11:40:22;;;;;;;8.52;7.63;;;15.80;92.10;;;;;;5094594;28;20360;-40
2021/05/14 11:42:53;;;;;;;8.00;7.07;;;15.80;92.00;;;;;;5090849;28;20024;-39
2021/05/14 11:45:27;;;;;;;8.90;7.55;;;16.00;92.10;;;;;;5096784;28;20054;-40
2021/05/14 11:47:55;;;;;;;7.80;7.00;;;16.00;91.80;;;;;;5103842;28;20020;-38
2021/05/14 11:50:33;;;;;;;8.98;7.55;;;16.10;91.90;;;;;;5099090;28;20125;-40
2021/05/14 11:53:04;;;;;;;8.07;7.28;;;16.20;91.40;;;;;;5105760;28;20027;-39
2021/05/14 11:55:30;;;;;;;7.38;6.68;;;16.30;90.80;;;;;;5098525;28;20117;-42
2021/05/14 11:57:57;;;;;;;8.02;7.22;;;16.30;91.10;;;;;;5106499;28;20139;-38
2021/05/14 12:00:38;;;;;;;7.10;6.40;;;16.40;91.20;;;;;;5096789;28;20110;-40
2021/05/14 12:03:09;;;;;;;7.07;6.38;;;16.50;91.30;;;;;;5107211;28;20475;-40
2021/05/14 12:05:37;;;;;;;9.23;6.80;;;16.50;91.00;;;;;;5096259;28;20043;-39
2021/05/14 12:08:26;;;;;;;5.88;5.38;;;16.50;90.60;;;;;;5105866;28;20110;-39
2021/05/14 12:11:19;;;;;;;5.38;4.97;;;16.50;90.50;;;;;;5096612;28;20016;-40
2021/05/14 12:13:45;;;;;;;5.95;5.10;;;16.60;90.80;;;;;;5099582;28;20203;-40
2021/05/14 12:16:12;;;;;;;6.15;5.15;;;16.80;90.60;;;;;;5097436;28;20514;-40
2021/05/14 12:18:56;;;;;;;6.70;6.00;;;16.90;90.60;;;;;;5088221;28;20110;-40
2021/05/14 12:21:36;;;;;;;8.68;6.45;;;16.90;89.30;;;;;;5098423;28;20024;-40
2021/05/14 12:24:16;;;;;;;5.47;4.97;;;16.80;89.20;;;;;;5102363;28;20352;-40
2021/05/14 12:26:42;;;;;;;6.63;5.90;;;16.60;88.50;;;;;;5095275;28;20418;-40
2021/05/14 12:29:29;;;;;;;5.80;5.30;;;16.50;88.10;;;;;;5088432;28;20085;-38
2021/05/14 12:32:03;;;;;;;5.30;4.60;;;16.40;89.30;;;;;;5095726;28;20039;-40
2021/05/14 12:34:29;;;;;;;6.57;5.45;;;16.40;90.00;;;;;;5089927;28;20090;-39
2021/05/14 12:36:56;;;;;;;6.22;5.03;;;16.50;88.90;;;;;;5095851;28;20872;-40
2021/05/14 12:39:26;;;;;;;6.57;4.53;;;16.60;89.20;;;;;;5088434;28;20036;-37